Spabunker 51 — ECNA — position and weather

sailwx.info

Track history (hours):
 
Tides and Currents Weather Stations Pressure Air Temp Water Temp Dewpoint Dewpoint Depression Visibility Wind Speed Wind Dir Waves Ship Positions

Spabunker 51

Last reported at 2014-Oct-30 23:19 UTC. Time now 2014-Oct-30 23:53 UTC.
Position N 36°06' W 005°25'.

Length 84 m; draft 5.8 m.

Type: Ship (hazmat cat A). MMSI: 224322240.

Date/timePositionNaut miles runAvg speedWind from/ knotsBaromVisibWave heightAir tempDewpointWater temp
2014-Oct-30 23:19N 36°06' W 005°25'0 0.0
2014-Oct-30 22:33N 36°05' W 005°25'0 0.0
2014-Oct-30 21:33N 36°05' W 005°25'0 0.0
2014-Oct-30 20:33N 36°05' W 005°25'0 0.0
2014-Oct-30 19:32N 36°05' W 005°25'0 0.0
2014-Oct-30 18:14N 36°05' W 005°25'0 0.0
2014-Oct-30 17:29N 36°05' W 005°25'3 3.1
2014-Oct-30 16:29N 36°09' W 005°25'0 0.3
2014-Oct-30 15:15N 36°09' W 005°26'0 0.0
2014-Oct-30 14:24N 36°09' W 005°26'0 0.0
2014-Oct-30 12:33N 36°09' W 005°26'0 0.0
2014-Oct-30 11:06N 36°09' W 005°26'0 0.0
2014-Oct-30 10:33N 36°09' W 005°26'0 0.0
2014-Oct-30 09:29N 36°09' W 005°26'0 0.1
2014-Oct-30 07:13N 36°09' W 005°26'2 2.0
2014-Oct-30 06:17N 36°10' W 005°24'2 0.1
2014-Oct-29 15:23N 36°09' W 005°26'3 3.8
2014-Oct-29 14:30N 36°06' W 005°24'0 0.0
2014-Oct-29 13:33N 36°06' W 005°24'0 0.0
2014-Oct-29 12:29N 36°06' W 005°24'0 0.0
2014-Oct-29 11:32N 36°06' W 005°24'0 0.0
2014-Oct-29 10:33N 36°06' W 005°24'0 0.0
2014-Oct-29 09:33N 36°06' W 005°24'3 3.1
2014-Oct-29 08:31N 36°09' W 005°26'0 0.0
2014-Oct-29 07:34N 36°09' W 005°26'0 0.0
2014-Oct-29 06:29N 36°09' W 005°26'1 0.1
2014-Oct-28 14:33N 36°10' W 005°25'1 1.2
2014-Oct-28 13:18N 36°11' W 005°24'0 0.0
2014-Oct-28 11:26N 36°11' W 005°24'0 0.0
2014-Oct-28 09:31N 36°11' W 005°24'0 0.0
2014-Oct-28 08:33N 36°11' W 005°24'0 0.0
2014-Oct-28 07:34N 36°11' W 005°24'0 0.3
2014-Oct-28 06:26N 36°10' W 005°24'2 2.4
2014-Oct-28 05:31N 36°09' W 005°26'0 0.0
2014-Oct-28 04:18N 36°09' W 005°26'0 0.0
2014-Oct-28 03:26N 36°09' W 005°26'0 0.0
2014-Oct-28 02:27N 36°09' W 005°26'0 0.0
2014-Oct-28 00:32N 36°09' W 005°26'1 0.2
2014-Oct-27 19:25N 36°08' W 005°25'3 0.4
2014-Oct-27 11:30N 36°05' W 005°24'0 0.1
2014-Oct-27 10:33N 36°05' W 005°24'0 0.1
2014-Oct-27 08:34N 36°05' W 005°24'0 0.0
2014-Oct-27 07:33N 36°05' W 005°24'0 0.0
2014-Oct-27 06:33N 36°05' W 005°24'0 0.0
2014-Oct-27 05:33N 36°05' W 005°24'0 0.1
2014-Oct-27 04:34N 36°05' W 005°24'1 0.6
2014-Oct-27 03:34N 36°06' W 005°24'0 0.0
2014-Oct-27 02:26N 36°06' W 005°24'0 0.0
2014-Oct-27 00:24N 36°06' W 005°24'0 0.0
2014-Oct-26 22:24N 36°06' W 005°24'0 0.1
2014-Oct-26 21:19N 36°06' W 005°24'1 1.7
2014-Oct-26 20:33N 36°07' W 005°24'4 3.1
2014-Oct-26 19:19N 36°11' W 005°24'0 0.0
2014-Oct-26 18:32N 36°11' W 005°24'0 0.0
2014-Oct-26 17:31N 36°11' W 005°24'0 0.0
2014-Oct-26 16:33N 36°11' W 005°24'0 0.0
2014-Oct-26 15:12N 36°11' W 005°24'0 0.0
2014-Oct-26 14:22N 36°11' W 005°24'0 0.0
2014-Oct-26 13:30N 36°11' W 005°24'0 0.0
2014-Oct-26 11:31N 36°11' W 005°24'0 0.0
2014-Oct-26 10:32N 36°11' W 005°24'0 0.0
2014-Oct-26 09:32N 36°11' W 005°24'1 0.6
2014-Oct-26 08:10N 36°10' W 005°23'5 1.0
2014-Oct-26 03:32N 36°06' W 005°25'0 0.1
2014-Oct-26 02:32N 36°06' W 005°25'0 0.0
2014-Oct-25 22:32N 36°06' W 005°25'5 4.3
2014-Oct-25 21:29N 36°10' W 005°23'0 0.0
2014-Oct-25 20:30N 36°10' W 005°23'2 1.1
2014-Oct-25 18:31N 36°09' W 005°26'0 0.1
2014-Oct-25 16:09N 36°09' W 005°26'0 0.0
2014-Oct-25 15:33N 36°09' W 005°26'1 1.3
2014-Oct-25 14:33N 36°08' W 005°26'0 0.0
2014-Oct-25 13:32N 36°08' W 005°26'0 0.0
2014-Oct-25 09:27N 36°08' W 005°26'1 0.2
2014-Oct-25 05:17N 36°08' W 005°26'3 3.6
2014-Oct-25 04:29N 36°06' W 005°25'0 0.0
2014-Oct-25 03:33N 36°06' W 005°25'0 0.1
2014-Oct-25 01:28N 36°06' W 005°25'0 0.0
2014-Oct-25 00:05N 36°06' W 005°25'1 1.0
2014-Oct-24 23:33N 36°06' W 005°25'0 0.2
2014-Oct-24 22:33N 36°06' W 005°25'1 0.2
2014-Oct-24 15:30N 36°05' W 005°24'0 0.2
2014-Oct-24 13:13N 36°05' W 005°24'0 0.0
2014-Oct-24 12:33N 36°05' W 005°25'0 0.1
2014-Oct-24 11:30N 36°05' W 005°24'1 1.4
2014-Oct-24 10:32N 36°06' W 005°25'0 0.1
2014-Oct-24 09:33N 36°06' W 005°25'0 0.1
2014-Oct-24 08:32N 36°06' W 005°25'0 0.0
2014-Oct-24 07:33N 36°06' W 005°25'0 0.0
2014-Oct-24 06:33N 36°06' W 005°25'0 0.0
2014-Oct-24 05:31N 36°06' W 005°25'0 0.1
2014-Oct-24 04:33N 36°06' W 005°25'0 0.0
2014-Oct-24 01:33N 36°06' W 005°25'0 0.0
2014-Oct-24 00:33N 36°06' W 005°25'0 0.0
2014-Oct-23 23:33N 36°06' W 005°25'0 0.0
2014-Oct-23 22:33N 36°07' W 005°25'0 0.0
2014-Oct-23 21:33N 36°06' W 005°25'1 0.6
2014-Oct-23 20:33N 36°06' W 005°26'0 0.0
2014-Oct-23 18:21N 36°06' W 005°26'2 2.2
2014-Oct-23 17:34N 36°08' W 005°25'1 0.1
2014-Oct-23 08:32N 36°08' W 005°26'1 0.8
2014-Oct-23 07:33N 36°09' W 005°26'0 0.0
2014-Oct-23 01:33N 36°09' W 005°26'0 0.0
2014-Oct-23 00:29N 36°09' W 005°26'0 0.0
2014-Oct-22 23:21N 36°09' W 005°26'0 0.0
2014-Oct-22 22:32N 36°09' W 005°26'0 0.0
2014-Oct-22 21:31N 36°09' W 005°26'0 0.0
2014-Oct-22 20:33N 36°09' W 005°26'1 1.0
2014-Oct-22 19:33N 36°09' W 005°25'0 0.2
2014-Oct-22 18:33N 36°09' W 005°24'0 0.1
2014-Oct-22 17:33N 36°09' W 005°24'0 0.0
2014-Oct-22 16:28N 36°09' W 005°24'0 0.2
2014-Oct-22 15:27N 36°09' W 005°24'0 0.0
2014-Oct-22 13:14N 36°09' W 005°25'2 0.8
2014-Oct-22 11:18N 36°11' W 005°24'0 0.0
2014-Oct-22 10:33N 36°11' W 005°24'0 0.0
2014-Oct-22 09:33N 36°11' W 005°24'0 0.0
2014-Oct-22 08:33N 36°11' W 005°24'0 0.0
2014-Oct-22 07:33N 36°11' W 005°24'0 0.0
2014-Oct-22 06:33N 36°11' W 005°24'0 0.0
2014-Oct-22 05:33N 36°11' W 005°24'0 0.0
2014-Oct-22 04:33N 36°11' W 005°24'0 0.0
2014-Oct-22 03:33N 36°11' W 005°24'0 0.0
2014-Oct-22 02:33N 36°11' W 005°24'0 0.0
2014-Oct-22 01:25N 36°11' W 005°24'0 0.0
2014-Oct-22 00:16N 36°11' W 005°24'3 0.5
2014-Oct-21 19:03N 36°09' W 005°26'0 0.0
2014-Oct-21 18:33N 36°09' W 005°26'0 0.0
2014-Oct-21 17:32N 36°09' W 005°26'0 0.0
2014-Oct-21 15:31N 36°09' W 005°26'0 0.0
2014-Oct-21 14:11N 36°09' W 005°26'0 0.0
2014-Oct-21 13:33N 36°09' W 005°26'0 0.2
2014-Oct-21 12:34N 36°09' W 005°26'1 1.1
2014-Oct-21 11:33N 36°08' W 005°25'0 0.0
2014-Oct-21 10:33N 36°08' W 005°25'0 0.0
2014-Oct-21 09:33N 36°08' W 005°25'2 0.5
2014-Oct-21 05:09N 36°10' W 005°23'0 0.0
2014-Oct-21 04:29N 36°10' W 005°23'0 0.0
2014-Oct-21 00:11N 36°10' W 005°23'  
Track history (hours):
 
Tides and Currents Weather Stations Pressure Air Temp Water Temp Dewpoint Dewpoint Depression Visibility Wind Speed Wind Dir Waves Ship Positions

Spabunker 51

Last reported at 2014-Oct-30 23:19 UTC. Time now 2014-Oct-30 23:53 UTC.
Position N 36°06' W 005°25'.

Length 84 m; draft 5.8 m.

Type: Ship (hazmat cat A). MMSI: 224322240.

Date/timePositionNaut miles runAvg speedWind from/ knotsBaromVisibWave heightAir tempDewpointWater temp
2014-Oct-30 23:19N 36°06' W 005°25'0 0.0
2014-Oct-30 22:33N 36°05' W 005°25'0 0.0
2014-Oct-30 21:33N 36°05' W 005°25'0 0.0
2014-Oct-30 20:33N 36°05' W 005°25'0 0.0
2014-Oct-30 19:32N 36°05' W 005°25'0 0.0
2014-Oct-30 18:14N 36°05' W 005°25'0 0.0
2014-Oct-30 17:29N 36°05' W 005°25'3 3.1
2014-Oct-30 16:29N 36°09' W 005°25'0 0.3
2014-Oct-30 15:15N 36°09' W 005°26'0 0.0
2014-Oct-30 14:24N 36°09' W 005°26'0 0.0
2014-Oct-30 12:33N 36°09' W 005°26'0 0.0
2014-Oct-30 11:06N 36°09' W 005°26'0 0.0
2014-Oct-30 10:33N 36°09' W 005°26'0 0.0
2014-Oct-30 09:29N 36°09' W 005°26'0 0.1
2014-Oct-30 07:13N 36°09' W 005°26'2 2.0
2014-Oct-30 06:17N 36°10' W 005°24'2 0.1
2014-Oct-29 15:23N 36°09' W 005°26'3 3.8
2014-Oct-29 14:30N 36°06' W 005°24'0 0.0
2014-Oct-29 13:33N 36°06' W 005°24'0 0.0
2014-Oct-29 12:29N 36°06' W 005°24'0 0.0
2014-Oct-29 11:32N 36°06' W 005°24'0 0.0
2014-Oct-29 10:33N 36°06' W 005°24'0 0.0
2014-Oct-29 09:33N 36°06' W 005°24'3 3.1
2014-Oct-29 08:31N 36°09' W 005°26'0 0.0
2014-Oct-29 07:34N 36°09' W 005°26'0 0.0
2014-Oct-29 06:29N 36°09' W 005°26'1 0.1
2014-Oct-28 14:33N 36°10' W 005°25'1 1.2
2014-Oct-28 13:18N 36°11' W 005°24'0 0.0
2014-Oct-28 11:26N 36°11' W 005°24'0 0.0
2014-Oct-28 09:31N 36°11' W 005°24'0 0.0
2014-Oct-28 08:33N 36°11' W 005°24'0 0.0
2014-Oct-28 07:34N 36°11' W 005°24'0 0.3
2014-Oct-28 06:26N 36°10' W 005°24'2 2.4
2014-Oct-28 05:31N 36°09' W 005°26'0 0.0
2014-Oct-28 04:18N 36°09' W 005°26'0 0.0
2014-Oct-28 03:26N 36°09' W 005°26'0 0.0
2014-Oct-28 02:27N 36°09' W 005°26'0 0.0
2014-Oct-28 00:32N 36°09' W 005°26'1 0.2
2014-Oct-27 19:25N 36°08' W 005°25'3 0.4
2014-Oct-27 11:30N 36°05' W 005°24'0 0.1
2014-Oct-27 10:33N 36°05' W 005°24'0 0.1
2014-Oct-27 08:34N 36°05' W 005°24'0 0.0
2014-Oct-27 07:33N 36°05' W 005°24'0 0.0
2014-Oct-27 06:33N 36°05' W 005°24'0 0.0
2014-Oct-27 05:33N 36°05' W 005°24'0 0.1
2014-Oct-27 04:34N 36°05' W 005°24'1 0.6
2014-Oct-27 03:34N 36°06' W 005°24'0 0.0
2014-Oct-27 02:26N 36°06' W 005°24'0 0.0
2014-Oct-27 00:24N 36°06' W 005°24'0 0.0
2014-Oct-26 22:24N 36°06' W 005°24'0 0.1
2014-Oct-26 21:19N 36°06' W 005°24'1 1.7
2014-Oct-26 20:33N 36°07' W 005°24'4 3.1
2014-Oct-26 19:19N 36°11' W 005°24'0 0.0
2014-Oct-26 18:32N 36°11' W 005°24'0 0.0
2014-Oct-26 17:31N 36°11' W 005°24'0 0.0
2014-Oct-26 16:33N 36°11' W 005°24'0 0.0
2014-Oct-26 15:12N 36°11' W 005°24'0 0.0
2014-Oct-26 14:22N 36°11' W 005°24'0 0.0
2014-Oct-26 13:30N 36°11' W 005°24'0 0.0
2014-Oct-26 11:31N 36°11' W 005°24'0 0.0
2014-Oct-26 10:32N 36°11' W 005°24'0 0.0
2014-Oct-26 09:32N 36°11' W 005°24'1 0.6
2014-Oct-26 08:10N 36°10' W 005°23'5 1.0
2014-Oct-26 03:32N 36°06' W 005°25'0 0.1
2014-Oct-26 02:32N 36°06' W 005°25'0 0.0
2014-Oct-25 22:32N 36°06' W 005°25'5 4.3
2014-Oct-25 21:29N 36°10' W 005°23'0 0.0
2014-Oct-25 20:30N 36°10' W 005°23'2 1.1
2014-Oct-25 18:31N 36°09' W 005°26'0 0.1
2014-Oct-25 16:09N 36°09' W 005°26'0 0.0
2014-Oct-25 15:33N 36°09' W 005°26'1 1.3
2014-Oct-25 14:33N 36°08' W 005°26'0 0.0
2014-Oct-25 13:32N 36°08' W 005°26'0 0.0
2014-Oct-25 09:27N 36°08' W 005°26'1 0.2
2014-Oct-25 05:17N 36°08' W 005°26'3 3.6
2014-Oct-25 04:29N 36°06' W 005°25'0 0.0
2014-Oct-25 03:33N 36°06' W 005°25'0 0.1
2014-Oct-25 01:28N 36°06' W 005°25'0 0.0
2014-Oct-25 00:05N 36°06' W 005°25'1 1.0
2014-Oct-24 23:33N 36°06' W 005°25'0 0.2
2014-Oct-24 22:33N 36°06' W 005°25'1 0.2
2014-Oct-24 15:30N 36°05' W 005°24'0 0.2
2014-Oct-24 13:13N 36°05' W 005°24'0 0.0
2014-Oct-24 12:33N 36°05' W 005°25'0 0.1
2014-Oct-24 11:30N 36°05' W 005°24'1 1.4
2014-Oct-24 10:32N 36°06' W 005°25'0 0.1
2014-Oct-24 09:33N 36°06' W 005°25'0 0.1
2014-Oct-24 08:32N 36°06' W 005°25'0 0.0
2014-Oct-24 07:33N 36°06' W 005°25'0 0.0
2014-Oct-24 06:33N 36°06' W 005°25'0 0.0
2014-Oct-24 05:31N 36°06' W 005°25'0 0.1
2014-Oct-24 04:33N 36°06' W 005°25'0 0.0
2014-Oct-24 01:33N 36°06' W 005°25'0 0.0
2014-Oct-24 00:33N 36°06' W 005°25'0 0.0
2014-Oct-23 23:33N 36°06' W 005°25'0 0.0
2014-Oct-23 22:33N 36°07' W 005°25'0 0.0
2014-Oct-23 21:33N 36°06' W 005°25'1 0.6
2014-Oct-23 20:33N 36°06' W 005°26'0 0.0
2014-Oct-23 18:21N 36°06' W 005°26'2 2.2
2014-Oct-23 17:34N 36°08' W 005°25'1 0.1
2014-Oct-23 08:32N 36°08' W 005°26'1 0.8
2014-Oct-23 07:33N 36°09' W 005°26'0 0.0
2014-Oct-23 01:33N 36°09' W 005°26'0 0.0
2014-Oct-23 00:29N 36°09' W 005°26'0 0.0
2014-Oct-22 23:21N 36°09' W 005°26'0 0.0
2014-Oct-22 22:32N 36°09' W 005°26'0 0.0
2014-Oct-22 21:31N 36°09' W 005°26'0 0.0
2014-Oct-22 20:33N 36°09' W 005°26'1 1.0
2014-Oct-22 19:33N 36°09' W 005°25'0 0.2
2014-Oct-22 18:33N 36°09' W 005°24'0 0.1
2014-Oct-22 17:33N 36°09' W 005°24'0 0.0
2014-Oct-22 16:28N 36°09' W 005°24'0 0.2
2014-Oct-22 15:27N 36°09' W 005°24'0 0.0
2014-Oct-22 13:14N 36°09' W 005°25'2 0.8
2014-Oct-22 11:18N 36°11' W 005°24'0 0.0
2014-Oct-22 10:33N 36°11' W 005°24'0 0.0
2014-Oct-22 09:33N 36°11' W 005°24'0 0.0
2014-Oct-22 08:33N 36°11' W 005°24'0 0.0
2014-Oct-22 07:33N 36°11' W 005°24'0 0.0
2014-Oct-22 06:33N 36°11' W 005°24'0 0.0
2014-Oct-22 05:33N 36°11' W 005°24'0 0.0
2014-Oct-22 04:33N 36°11' W 005°24'0 0.0
2014-Oct-22 03:33N 36°11' W 005°24'0 0.0
2014-Oct-22 02:33N 36°11' W 005°24'0 0.0
2014-Oct-22 01:25N 36°11' W 005°24'0 0.0
2014-Oct-22 00:16N 36°11' W 005°24'3 0.5
2014-Oct-21 19:03N 36°09' W 005°26'0 0.0
2014-Oct-21 18:33N 36°09' W 005°26'0 0.0
2014-Oct-21 17:32N 36°09' W 005°26'0 0.0
2014-Oct-21 15:31N 36°09' W 005°26'0 0.0
2014-Oct-21 14:11N 36°09' W 005°26'0 0.0
2014-Oct-21 13:33N 36°09' W 005°26'0 0.2
2014-Oct-21 12:34N 36°09' W 005°26'1 1.1
2014-Oct-21 11:33N 36°08' W 005°25'0 0.0
2014-Oct-21 10:33N 36°08' W 005°25'0 0.0
2014-Oct-21 09:33N 36°08' W 005°25'2 0.5
2014-Oct-21 05:09N 36°10' W 005°23'0 0.0
2014-Oct-21 04:29N 36°10' W 005°23'0 0.0
2014-Oct-21 00:11N 36°10' W 005°23'  

Dump ship's entire track history